Time;durP1;ratioP1;P1;durP2;ratioP2;P2;SDS_P1;SDS_P2;PMS_P1;PMS_P2;Temp;Humidity;BMP_temperature;BMP_pressure;BME280_temperature;BME280_humidity;BME280_pressure;Samples;Min_cycle;Max_cycle;Signal;HPM_P1;HPM_P2
2022/02/18 00:02:23;;;;;;;28.00;4.85;;;;;;;3.91;83.80;97897.06;5067708;28;20017;-75
2022/02/18 00:04:48;;;;;;;26.77;4.38;;;;;;;3.82;83.49;97901.53;5067479;28;20055;-75
2022/02/18 00:07:14;;;;;;;29.98;3.53;;;;;;;3.79;83.43;97901.59;5067234;28;20429;-74
2022/02/18 00:09:39;;;;;;;27.00;3.60;;;;;;;3.74;83.80;97897.44;5049199;28;20055;-74
2022/02/18 00:12:05;;;;;;;22.77;4.28;;;;;;;3.72;83.79;97900.03;5067376;28;20025;-74
2022/02/18 00:14:31;;;;;;;30.17;4.72;;;;;;;3.69;84.02;97895.81;5067568;28;20029;-76
2022/02/18 00:16:56;;;;;;;41.97;4.57;;;;;;;3.67;84.24;97902.72;5067529;28;20020;-75
2022/02/18 00:19:21;;;;;;;30.05;4.00;;;;;;;3.68;84.34;97899.25;5067253;28;20029;-75
2022/02/18 00:21:49;;;;;;;13.80;2.92;;;;;;;3.65;84.48;97894.19;5067245;28;20029;-75
2022/02/18 00:24:14;;;;;;;38.22;4.68;;;;;;;3.72;84.54;97900.88;5048824;28;20033;-75
2022/02/18 00:26:40;;;;;;;37.92;4.18;;;;;;;3.69;84.46;97906.06;5049376;28;20163;-75
2022/02/18 00:29:05;;;;;;;24.60;3.85;;;;;;;3.67;84.32;97912.13;5067330;28;20080;-74
2022/02/18 00:31:30;;;;;;;18.15;2.78;;;;;;;3.66;83.93;97911.25;5066919;28;20025;-75
2022/02/18 00:33:56;;;;;;;30.98;4.85;;;;;;;3.67;83.74;97917.25;5067221;28;20367;-74
2022/02/18 00:36:21;;;;;;;29.75;3.78;;;;;;;3.68;83.36;97913.78;5069002;28;20089;-76
2022/02/18 00:38:46;;;;;;;19.38;3.63;;;;;;;3.72;83.89;97921.41;5067706;28;20017;-74
2022/02/18 00:41:13;;;;;;;10.02;2.05;;;;;;;3.72;84.25;97908.56;5066851;28;20029;-75
2022/02/18 00:43:39;;;;;;;22.45;3.13;;;;;;;3.79;83.97;97923.84;5066920;28;20163;-75
2022/02/18 00:46:04;;;;;;;14.18;3.15;;;;;;;3.74;84.06;97923.94;5066826;28;20477;-75
2022/02/18 00:48:30;;;;;;;18.00;2.55;;;;;;;3.78;84.25;97919.59;5066638;28;20081;-74
2022/02/18 00:50:55;;;;;;;31.20;4.65;;;;;;;3.82;84.11;97928.91;5066618;28;20039;-73
2022/02/18 00:53:20;;;;;;;25.75;6.00;;;;;;;3.76;84.25;97906.78;5066030;28;20169;-74
2022/02/18 00:55:46;;;;;;;28.30;5.93;;;;;;;3.82;84.00;97932.31;5048724;28;20025;-74
2022/02/18 00:58:11;;;;;;;19.40;4.25;;;;;;;3.89;84.25;97924.50;5048597;28;20060;-74
2022/02/18 01:00:36;;;;;;;30.27;4.32;;;;;;;3.88;84.23;97931.38;5066444;28;20449;-74
2022/02/18 01:03:02;;;;;;;27.10;4.57;;;;;;;3.90;84.20;97923.63;5048429;28;20089;-74
2022/02/18 01:05:27;;;;;;;22.55;4.28;;;;;;;3.95;83.78;97924.34;5066188;28;20024;-74
2022/02/18 01:07:53;;;;;;;25.92;3.80;;;;;;;3.90;84.15;97934.72;5065950;28;20040;-74
2022/02/18 01:10:18;;;;;;;32.35;5.90;;;;;;;3.90;83.96;97939.88;5066082;28;20028;-74
2022/02/18 01:12:43;;;;;;;35.17;5.15;;;;;;;3.87;83.99;97927.09;5066190;28;20025;-73
2022/02/18 01:15:10;;;;;;;20.75;3.80;;;;;;;3.85;83.75;97933.97;5066162;28;20068;-73
2022/02/18 01:17:36;;;;;;;27.27;5.03;;;;;;;3.87;83.38;97944.22;5066069;28;20052;-74
2022/02/18 01:20:03;;;;;;;24.80;4.03;;;;;;;3.84;83.83;97934.84;5066197;28;20112;-75
2022/02/18 01:22:29;;;;;;;22.65;4.78;;;;;;;3.79;83.78;97941.81;5065968;28;20032;-74
2022/02/18 01:24:55;;;;;;;26.63;4.22;;;;;;;3.81;84.03;97950.31;5066110;28;20049;-74
2022/02/18 01:27:20;;;;;;;26.70;3.50;;;;;;;3.74;83.51;97956.47;5066258;28;20057;-77
2022/02/18 01:29:46;;;;;;;26.83;3.78;;;;;;;3.74;83.72;97961.59;5066032;28;20029;-74
2022/02/18 01:32:12;;;;;;;20.92;3.80;;;;;;;3.78;83.26;97965.78;5066059;28;20036;-73
2022/02/18 01:34:38;;;;;;;14.95;3.13;;;;;;;3.69;83.24;97972.78;5065911;28;20029;-74
2022/02/18 01:37:04;;;;;;;13.02;2.47;;;;;;;3.69;83.40;97970.22;5065717;28;20031;-75
2022/02/18 01:39:30;;;;;;;17.40;3.47;;;;;;;3.70;83.17;97984.75;5066079;28;20056;-74
2022/02/18 01:41:56;;;;;;;24.60;3.33;;;;;;;3.64;83.11;97987.44;5065650;28;20039;-73
2022/02/18 01:44:51;;;;;;;25.90;3.58;;;;;;;3.65;82.40;97984.00;5065687;28;20028;-74
2022/02/18 01:47:22;;;;;;;20.65;3.72;;;;;;;3.66;82.65;98011.34;5052608;28;20041;-74
2022/02/18 01:49:50;;;;;;;17.40;4.22;;;;;;;3.59;82.89;97995.22;5065663;28;20044;-73
2022/02/18 01:52:17;;;;;;;21.33;3.97;;;;;;;3.61;83.08;98005.44;5065277;28;20025;-73
2022/02/18 01:54:42;;;;;;;23.50;4.47;;;;;;;3.64;82.69;98002.00;5065606;28;20089;-77
2022/02/18 01:57:08;;;;;;;21.33;5.22;;;;;;;3.65;83.08;98022.50;5065249;28;20028;-74
2022/02/18 01:59:33;;;;;;;22.00;3.08;;;;;;;3.60;83.02;98016.59;5065437;28;20431;-75
2022/02/18 02:01:59;;;;;;;19.33;3.03;;;;;;;3.62;82.78;98035.38;5047347;28;20530;-76
2022/02/18 02:04:29;;;;;;;17.00;3.60;;;;;;;3.61;82.87;98025.97;5046625;28;20495;-71
2022/02/18 02:06:59;;;;;;;10.50;3.70;;;;;;;3.61;82.37;98028.53;5065441;28;20031;-73
2022/02/18 02:09:25;;;;;;;22.45;4.10;;;;;;;3.60;82.60;98031.97;5065311;28;20021;-73
2022/02/18 02:11:51;;;;;;;27.17;3.60;;;;;;;3.61;82.80;98035.41;5065200;28;20052;-73
2022/02/18 02:14:16;;;;;;;32.83;3.65;;;;;;;3.56;82.55;98032.94;5065251;28;20029;-76
2022/02/18 02:16:42;;;;;;;20.73;2.67;;;;;;;3.56;82.93;98038.88;5065276;28;20028;-73
2022/02/18 02:19:07;;;;;;;15.65;2.38;;;;;;;3.56;82.35;98035.50;5065519;28;20111;-75
2022/02/18 02:21:33;;;;;;;18.45;2.33;;;;;;;3.52;82.41;98041.53;5065116;28;20063;-72
2022/02/18 02:23:59;;;;;;;19.75;3.08;;;;;;;3.53;81.71;98062.03;5065063;28;20547;-74
2022/02/18 02:26:25;;;;;;;22.95;3.25;;;;;;;3.49;81.46;98060.41;5064998;28;20040;-75
2022/02/18 02:28:50;;;;;;;16.58;3.17;;;;;;;3.49;81.80;98057.84;5065247;28;20401;-72
2022/02/18 02:31:16;;;;;;;17.55;3.47;;;;;;;3.46;81.55;98053.63;5065023;28;20021;-72
2022/02/18 02:33:42;;;;;;;16.70;3.25;;;;;;;3.47;81.74;98065.56;5047239;28;20090;-73
2022/02/18 02:36:07;;;;;;;23.17;4.45;;;;;;;3.53;81.99;98066.34;5064850;28;20025;-73
2022/02/18 02:38:33;;;;;;;15.07;2.97;;;;;;;3.54;82.08;98065.44;5064874;28;20021;-73
2022/02/18 02:40:58;;;;;;;18.67;2.75;;;;;;;3.50;82.20;98077.47;5047098;28;20025;-73
2022/02/18 02:43:23;;;;;;;25.27;3.35;;;;;;;3.54;82.55;98068.88;5064830;28;20017;-74
2022/02/18 02:45:49;;;;;;;18.10;3.15;;;;;;;3.56;82.47;98074.81;5065123;28;20029;-75
2022/02/18 02:48:14;;;;;;;11.82;2.35;;;;;;;3.55;82.97;98074.81;5064888;28;20031;-72
2022/02/18 02:50:40;;;;;;;28.67;4.28;;;;;;;3.50;82.95;98074.91;5064793;28;20033;-74
2022/02/18 02:53:06;;;;;;;17.60;2.88;;;;;;;3.48;83.06;98094.63;5064694;28;20048;-73
2022/02/18 02:55:31;;;;;;;16.80;3.63;;;;;;;3.50;82.99;98092.03;5046991;28;20049;-73
2022/02/18 02:57:57;;;;;;;25.83;3.30;;;;;;;3.52;83.02;98080.03;5064941;28;20025;-70
2022/02/18 03:00:22;;;;;;;23.05;4.80;;;;;;;3.53;82.90;98089.44;5064946;28;20235;-73
2022/02/18 03:02:47;;;;;;;17.33;2.85;;;;;;;3.50;82.83;98081.78;5064788;28;20078;-73
2022/02/18 03:05:13;;;;;;;28.17;4.38;;;;;;;3.57;82.61;98081.66;5064807;28;20037;-73
2022/02/18 03:07:39;;;;;;;24.08;4.38;;;;;;;3.65;82.91;98094.34;5064663;28;20029;-73
2022/02/18 03:10:06;;;;;;;24.67;4.93;;;;;;;3.69;82.84;98075.44;5064665;28;20027;-72
2022/02/18 03:12:32;;;;;;;24.92;4.55;;;;;;;3.70;82.99;98078.84;5064694;28;20032;-73
2022/02/18 03:14:58;;;;;;;27.50;4.97;;;;;;;3.71;82.62;98089.09;5064683;28;20024;-73
2022/02/18 03:17:24;;;;;;;20.13;3.58;;;;;;;3.67;82.50;98092.59;5068047;28;20481;-73
2022/02/18 03:19:49;;;;;;;34.90;6.97;;;;;;;3.73;82.54;98091.63;5068534;28;20025;-73
2022/02/18 03:22:14;;;;;;;21.70;3.55;;;;;;;3.64;82.96;98067.00;5068119;28;20032;-72
2022/02/18 03:24:40;;;;;;;26.63;4.25;;;;;;;3.65;83.17;98096.91;5068412;28;20049;-75
2022/02/18 03:27:05;;;;;;;32.33;4.45;;;;;;;3.64;83.29;98084.97;5068182;28;20074;-74
2022/02/18 03:29:31;;;;;;;19.75;4.43;;;;;;;3.69;83.17;98080.56;5068162;28;20063;-73
2022/02/18 03:31:56;;;;;;;32.33;5.07;;;;;;;3.74;82.85;98098.44;5067947;28;20032;-74
2022/02/18 03:34:22;;;;;;;19.48;3.88;;;;;;;3.71;83.21;98078.84;5067981;28;20384;-77
2022/02/18 03:36:47;;;;;;;29.05;4.88;;;;;;;3.74;82.68;98088.19;5068061;28;20085;-74
2022/02/18 03:39:13;;;;;;;25.13;4.97;;;;;;;3.78;83.10;98102.66;5067797;28;20071;-74
2022/02/18 03:41:38;;;;;;;27.25;4.47;;;;;;;3.84;83.09;98102.56;5067849;28;20021;-73
2022/02/18 03:44:06;;;;;;;25.08;5.68;;;;;;;3.88;83.17;98102.50;5067853;28;20025;-74
2022/02/18 03:46:32;;;;;;;19.92;3.05;;;;;;;3.94;83.29;98102.38;5067859;28;20039;-75
2022/02/18 03:48:58;;;;;;;31.52;5.32;;;;;;;3.91;82.72;98108.44;5068103;28;20021;-73
2022/02/18 03:51:23;;;;;;;28.77;5.28;;;;;;;3.93;83.32;98101.53;5049679;28;20052;-74
2022/02/18 03:53:49;;;;;;;25.55;5.07;;;;;;;3.95;82.85;98117.75;5049616;28;20063;-73
2022/02/18 03:56:15;;;;;;;33.03;8.32;;;;;;;3.92;82.74;98120.38;5067765;28;20029;-74
2022/02/18 03:58:41;;;;;;;20.98;4.60;;;;;;;4.02;82.74;98125.34;5067573;28;20025;-72
2022/02/18 04:01:06;;;;;;;33.92;4.47;;;;;;;3.96;83.13;98129.72;5067429;28;20029;-72
2022/02/18 04:03:31;;;;;;;29.98;4.55;;;;;;;4.08;83.09;98132.94;5067477;28;20021;-73
2022/02/18 04:05:56;;;;;;;21.05;3.45;;;;;;;3.96;83.15;98128.88;5067508;28;20028;-73
2022/02/18 04:08:22;;;;;;;28.75;5.05;;;;;;;4.01;83.42;98134.75;5067222;28;20029;-73
2022/02/18 04:10:47;;;;;;;27.10;5.47;;;;;;;4.04;83.24;98133.88;5067340;28;20043;-73
2022/02/18 04:13:12;;;;;;;31.17;4.93;;;;;;;3.87;83.20;98099.06;5049349;28;20025;-72
2022/02/18 04:15:38;;;;;;;27.17;3.33;;;;;;;3.91;82.70;98121.28;5049358;28;20510;-73
2022/02/18 04:18:04;;;;;;;27.17;4.38;;;;;;;4.03;82.67;98137.31;5049479;28;20051;-74
2022/02/18 04:20:30;;;;;;;21.20;4.38;;;;;;;4.00;82.88;98137.34;5067321;28;20044;-72
2022/02/18 04:22:55;;;;;;;17.77;4.22;;;;;;;3.88;83.10;98141.88;5067157;28;20106;-72
2022/02/18 04:25:21;;;;;;;23.55;3.28;;;;;;;3.89;83.29;98137.56;5067014;28;20041;-70
2022/02/18 04:27:57;;;;;;;18.02;3.38;;;;;;;3.86;83.19;98135.91;5066296;28;20148;-72
2022/02/18 04:30:23;;;;;;;38.35;4.57;;;;;;;3.80;83.53;98133.44;5067068;28;20036;-72
2022/02/18 04:32:49;;;;;;;27.23;4.10;;;;;;;3.78;83.44;98137.75;5066979;28;20021;-71
2022/02/18 04:35:15;;;;;;;24.88;5.03;;;;;;;3.72;83.56;98115.63;5066957;28;20021;-74
2022/02/18 04:37:41;;;;;;;19.48;4.18;;;;;;;3.72;83.54;98154.94;5048776;28;20023;-73
2022/02/18 04:40:07;;;;;;;22.40;3.47;;;;;;;3.63;83.48;98143.97;5066862;28;20029;-73
2022/02/18 04:42:33;;;;;;;20.00;5.30;;;;;;;3.68;83.71;98160.16;5066738;28;20021;-73
2022/02/18 04:44:58;;;;;;;10.32;2.90;;;;;;;3.71;83.33;98163.53;5048840;28;20021;-72
2022/02/18 04:47:24;;;;;;;22.17;3.47;;;;;;;3.62;83.61;98152.56;5066962;28;20020;-74
2022/02/18 04:49:49;;;;;;;28.75;5.47;;;;;;;3.64;83.50;98179.91;5048698;28;20051;-73
2022/02/18 04:52:15;;;;;;;23.48;4.70;;;;;;;3.56;83.59;98166.34;5066343;28;20029;-72
2022/02/18 04:54:41;;;;;;;32.60;4.18;;;;;;;3.56;83.54;98174.03;5066658;28;20318;-72
2022/02/18 04:57:06;;;;;;;14.55;3.33;;;;;;;3.58;83.83;98174.84;5066559;28;20025;-72
2022/02/18 04:59:32;;;;;;;29.92;5.10;;;;;;;3.59;83.88;98177.38;5066481;28;20031;-73
2022/02/18 05:01:57;;;;;;;30.95;5.60;;;;;;;3.61;84.13;98176.53;5066364;28;20454;-71
2022/02/18 05:04:23;;;;;;;20.67;3.42;;;;;;;3.59;83.71;98176.56;5066287;28;20032;-73
2022/02/18 05:06:49;;;;;;;19.08;3.30;;;;;;;3.63;83.58;98185.03;5066284;28;20044;-72
2022/02/18 05:09:14;;;;;;;24.27;3.85;;;;;;;3.56;83.10;98181.75;5066174;28;20017;-73
2022/02/18 05:11:39;;;;;;;20.08;3.78;;;;;;;3.62;82.79;98189.34;5066156;28;20048;-73
2022/02/18 05:14:05;;;;;;;18.52;3.08;;;;;;;3.58;82.20;98197.94;5066214;28;20104;-73
2022/02/18 05:16:30;;;;;;;21.20;3.65;;;;;;;3.55;82.52;98200.56;5066327;28;20066;-73
2022/02/18 05:18:55;;;;;;;12.15;3.03;;;;;;;3.49;82.52;98180.97;5066305;28;20021;-73
2022/02/18 05:21:22;;;;;;;30.90;3.22;;;;;;;3.46;82.40;98188.72;5066288;28;20025;-71
2022/02/18 05:23:48;;;;;;;20.90;3.50;;;;;;;3.50;82.96;98176.72;5065909;28;20048;-72
2022/02/18 05:26:13;;;;;;;20.55;4.10;;;;;;;3.42;82.61;98179.41;5065963;28;20063;-72
2022/02/18 05:28:39;;;;;;;18.00;3.88;;;;;;;3.39;82.84;98190.53;5065757;28;20025;-73
2022/02/18 05:31:04;;;;;;;26.77;4.32;;;;;;;3.44;82.97;98193.88;5065729;28;20056;-74
2022/02/18 05:33:29;;;;;;;21.23;4.80;;;;;;;3.39;82.81;98215.31;5047653;28;20020;-73
2022/02/18 05:35:55;;;;;;;21.20;2.92;;;;;;;3.42;83.32;98223.00;5065789;28;20040;-68
2022/02/18 05:38:20;;;;;;;33.28;4.00;;;;;;;3.45;83.53;98234.03;5065375;28;20032;-73
2022/02/18 05:40:45;;;;;;;17.30;3.67;;;;;;;3.44;83.64;98223.81;5064751;28;20106;-73
2022/02/18 05:43:11;;;;;;;19.35;3.05;;;;;;;3.48;83.72;98228.03;5065736;28;20032;-70
2022/02/18 05:45:36;;;;;;;30.60;3.75;;;;;;;3.39;83.60;98210.19;5065578;28;20093;-74
2022/02/18 05:48:01;;;;;;;25.85;3.95;;;;;;;3.44;84.01;98218.66;5065712;28;20035;-75
2022/02/18 05:50:27;;;;;;;29.40;4.20;;;;;;;3.41;84.01;98219.59;5065566;28;20369;-73
2022/02/18 05:52:52;;;;;;;26.48;4.20;;;;;;;3.44;84.22;98216.97;5065362;28;20029;-74
2022/02/18 05:55:17;;;;;;;21.83;4.28;;;;;;;3.47;84.42;98209.22;5065323;28;20074;-74
2022/02/18 05:57:43;;;;;;;25.27;2.72;;;;;;;3.49;84.72;98221.16;5065308;28;20029;-74
2022/02/18 06:00:09;;;;;;;34.30;5.32;;;;;;;3.46;84.84;98227.19;5047180;28;20025;-74
2022/02/18 06:02:35;;;;;;;33.15;5.85;;;;;;;3.45;84.65;98205.81;5065245;28;20107;-75
2022/02/18 06:05:02;;;;;;;38.83;5.22;;;;;;;3.45;84.59;98240.91;5065387;28;20118;-74
2022/02/18 06:07:29;;;;;;;24.35;4.07;;;;;;;3.41;84.67;98229.84;5065174;28;20036;-73
2022/02/18 06:09:54;;;;;;;12.60;2.85;;;;;;;3.41;84.40;98237.53;5065296;28;20080;-73
2022/02/18 06:12:20;;;;;;;29.35;3.67;;;;;;;3.38;84.41;98227.31;5065190;28;20059;-74
2022/02/18 06:14:49;;;;;;;27.20;4.38;;;;;;;3.44;84.70;98239.19;5065308;28;20032;-69
2022/02/18 06:17:18;;;;;;;26.70;2.40;;;;;;;3.41;84.32;98234.97;5065468;28;20051;-75
2022/02/18 06:19:43;;;;;;;27.00;5.13;;;;;;;3.51;84.36;98235.69;5065481;28;20047;-71
2022/02/18 06:22:09;;;;;;;14.70;3.28;;;;;;;3.52;84.57;98249.34;5065144;28;20052;-72
2022/02/18 06:24:34;;;;;;;27.27;3.25;;;;;;;3.51;84.72;98255.34;5064672;28;20057;-71
2022/02/18 06:27:00;;;;;;;31.75;4.57;;;;;;;3.48;84.52;98251.13;5065129;28;20025;-72
2022/02/18 06:29:25;;;;;;;30.65;6.60;;;;;;;3.50;84.65;98262.19;5047040;28;20546;-72
2022/02/18 06:31:51;;;;;;;15.85;3.00;;;;;;;3.45;84.68;98259.69;5064818;28;20076;-72
2022/02/18 06:34:16;;;;;;;25.25;4.32;;;;;;;3.45;84.38;98262.25;5047022;28;20040;-73
2022/02/18 06:36:42;;;;;;;30.23;4.22;;;;;;;3.44;84.28;98259.72;5065149;28;20021;-72
2022/02/18 06:39:09;;;;;;;25.08;3.53;;;;;;;3.39;84.42;98270.03;5064868;28;20021;-72
2022/02/18 06:41:34;;;;;;;18.15;3.78;;;;;;;3.42;84.49;98264.03;5065152;28;20481;-71
2022/02/18 06:44:00;;;;;;;35.25;6.40;;;;;;;3.29;84.54;98246.22;5065474;28;20025;-72
2022/02/18 06:46:25;;;;;;;29.85;4.38;;;;;;;3.44;84.65;98264.84;5047528;28;20519;-73
2022/02/18 06:48:50;;;;;;;19.55;3.40;;;;;;;3.31;84.76;98244.50;5065248;28;20097;-70
2022/02/18 06:51:16;;;;;;;29.13;4.28;;;;;;;3.44;84.87;98272.53;5066728;28;20021;-71
2022/02/18 06:53:41;;;;;;;21.63;3.00;;;;;;;3.49;85.05;98272.47;5068609;28;20420;-73
2022/02/18 06:56:06;;;;;;;19.08;3.03;;;;;;;3.54;85.08;98270.72;5068964;28;20021;-70
2022/02/18 06:58:33;;;;;;;24.30;3.75;;;;;;;3.56;84.78;98274.94;5068883;28;20032;-72
2022/02/18 07:00:58;;;;;;;26.33;4.78;;;;;;;3.62;84.58;98263.75;5068615;28;20021;-71
2022/02/18 07:03:24;;;;;;;27.80;4.38;;;;;;;3.72;84.90;98280.69;5068732;28;20024;-70
2022/02/18 07:05:49;;;;;;;21.88;3.85;;;;;;;3.79;84.73;98280.59;5068658;28;20025;-72
2022/02/18 07:08:16;;;;;;;28.60;4.35;;;;;;;3.82;84.63;98275.41;5068552;28;20032;-72
2022/02/18 07:10:42;;;;;;;20.85;3.67;;;;;;;3.93;84.79;98272.72;5068541;28;20017;-72
2022/02/18 07:13:08;;;;;;;40.65;4.65;;;;;;;3.96;84.53;98272.66;5068872;28;20025;-72
2022/02/18 07:15:33;;;;;;;30.92;4.55;;;;;;;3.94;84.29;98269.25;5068951;28;20025;-72
2022/02/18 07:18:01;;;;;;;4.55;1.45;;;;;;;3.95;84.51;98263.25;5068560;28;20043;-72
2022/02/18 07:20:26;;;;;;;11.48;2.33;;;;;;;3.98;84.10;98263.19;5068316;28;20047;-71
2022/02/18 07:22:52;;;;;;;16.35;3.97;;;;;;;3.95;83.90;98260.69;5068383;28;20060;-71
2022/02/18 07:25:20;;;;;;;17.00;3.97;;;;;;;3.98;84.03;98258.06;5068262;28;20087;-72
2022/02/18 07:27:46;;;;;;;24.63;3.50;;;;;;;4.06;83.80;98253.66;5068351;28;20025;-71
2022/02/18 07:30:13;;;;;;;16.10;3.03;;;;;;;4.12;84.10;98249.28;5065242;28;20032;-70
2022/02/18 07:32:39;;;;;;;20.42;3.15;;;;;;;4.19;84.18;98241.44;5065501;28;20029;-70
2022/02/18 07:35:04;;;;;;;22.52;4.18;;;;;;;4.31;84.54;98226.69;5065809;28;20076;-72
2022/02/18 07:37:30;;;;;;;25.20;4.18;;;;;;;4.67;84.51;98229.44;5065351;28;20470;-71
2022/02/18 07:39:55;;;;;;;14.32;2.92;;;;;;;5.13;84.49;98233.69;5044611;28;20041;-70
2022/02/18 07:42:20;;;;;;;18.50;2.95;;;;;;;5.46;83.44;98237.22;5047208;28;20032;-70
2022/02/18 07:44:46;;;;;;;20.15;2.63;;;;;;;5.71;81.41;98222.97;5065372;28;20024;-72
2022/02/18 07:47:11;;;;;;;23.83;3.22;;;;;;;5.94;79.91;98230.13;5065053;28;20112;-71
2022/02/18 07:49:37;;;;;;;10.60;3.10;;;;;;;6.26;79.79;98237.13;5065182;28;20108;-71
2022/02/18 07:52:03;;;;;;;16.17;3.45;;;;;;;6.44;78.18;98234.06;5065143;28;20029;-72
2022/02/18 07:54:29;;;;;;;20.90;3.30;;;;;;;6.68;78.27;98236.84;5064843;28;20342;-72
2022/02/18 07:56:54;;;;;;;17.52;3.13;;;;;;;6.86;75.73;98237.22;5065069;28;20024;-71
2022/02/18 07:59:19;;;;;;;18.50;3.30;;;;;;;6.91;74.00;98231.94;5065028;28;20056;-71
2022/02/18 08:01:45;;;;;;;19.27;3.40;;;;;;;6.99;74.43;98245.47;5064446;28;20025;-72
2022/02/18 08:04:10;;;;;;;15.85;2.85;;;;;;;7.06;75.36;98254.72;5064128;28;20088;-70
2022/02/18 08:06:35;;;;;;;9.65;3.30;;;;;;;6.72;73.78;98236.78;5046750;28;20032;-71
2022/02/18 08:09:02;;;;;;;15.43;4.32;;;;;;;6.59;74.21;98251.72;5063389;28;20461;-71
2022/02/18 08:11:28;;;;;;;14.00;2.47;;;;;;;6.39;74.62;98248.78;5064743;28;20021;-71
2022/02/18 08:13:53;;;;;;;19.25;3.55;;;;;;;6.03;73.63;98264.28;5064855;28;20028;-72
2022/02/18 08:16:19;;;;;;;26.30;4.05;;;;;;;5.78;74.88;98250.25;5064736;28;20052;-71
2022/02/18 08:18:44;;;;;;;9.02;1.83;;;;;;;5.61;75.80;98253.22;5064815;28;20093;-72
2022/02/18 08:21:11;;;;;;;19.73;4.35;;;;;;;5.38;75.76;98253.75;5064668;28;20066;-70
2022/02/18 08:23:37;;;;;;;20.73;3.28;;;;;;;5.22;75.92;98254.09;5064438;28;20021;-72
2022/02/18 08:26:03;;;;;;;20.05;4.38;;;;;;;5.08;76.54;98256.91;5064252;28;20053;-71
2022/02/18 08:28:28;;;;;;;18.95;4.20;;;;;;;5.00;76.53;98266.53;5064369;28;20025;-71
2022/02/18 08:30:54;;;;;;;23.55;4.68;;;;;;;4.95;77.56;98266.63;5046205;28;20055;-70
2022/02/18 08:33:19;;;;;;;12.77;2.47;;;;;;;4.92;77.43;98262.38;5046215;28;20021;-71
2022/02/18 08:35:45;;;;;;;16.13;3.03;;;;;;;4.94;77.35;98264.91;5064048;28;20029;-71
2022/02/18 08:38:10;;;;;;;17.38;3.08;;;;;;;5.02;77.11;98280.19;5064069;28;20021;-71
2022/02/18 08:40:36;;;;;;;20.20;3.05;;;;;;;5.07;77.97;98279.25;5046299;28;20088;-70
2022/02/18 08:43:03;;;;;;;15.00;3.40;;;;;;;5.31;77.90;98287.31;5064247;28;20017;-71
2022/02/18 08:45:28;;;;;;;10.27;2.00;;;;;;;5.39;77.19;98282.00;5064367;28;20035;-71
2022/02/18 08:47:54;;;;;;;14.00;2.65;;;;;;;5.28;75.77;98292.53;5064526;28;20025;-71
2022/02/18 08:50:20;;;;;;;11.95;1.52;;;;;;;5.10;76.22;98288.59;5063893;28;20017;-69
2022/02/18 08:52:45;;;;;;;16.73;2.75;;;;;;;4.92;76.25;98290.66;5045588;28;20033;-73
2022/02/18 08:55:14;;;;;;;17.15;3.30;;;;;;;4.91;76.76;98301.84;5064077;28;20028;-70
2022/02/18 08:57:40;;;;;;;23.48;4.35;;;;;;;4.90;77.25;98313.00;5064040;28;20079;-71
2022/02/18 09:00:07;;;;;;;18.73;3.25;;;;;;;4.87;76.78;98323.34;5063974;28;20084;-72
2022/02/18 09:02:35;;;;;;;11.65;2.60;;;;;;;4.86;77.38;98315.69;5063708;28;20020;-71
2022/02/18 09:05:00;;;;;;;14.38;2.38;;;;;;;4.83;77.14;98326.84;5064055;28;20013;-71
2022/02/18 09:07:26;;;;;;;16.10;2.42;;;;;;;4.80;76.76;98324.31;5063749;28;20027;-70
2022/02/18 09:09:51;;;;;;;10.02;2.40;;;;;;;4.76;77.11;98326.09;5064004;28;20265;-72
2022/02/18 09:12:17;;;;;;;19.38;3.55;;;;;;;4.71;77.09;98331.31;5063562;28;20059;-70
2022/02/18 09:14:42;;;;;;;28.17;4.60;;;;;;;4.80;77.84;98342.31;5063517;28;20040;-71
2022/02/18 09:17:07;;;;;;;18.92;4.22;;;;;;;4.86;78.11;98344.78;5045466;28;20073;-71
2022/02/18 09:19:33;;;;;;;15.63;2.67;;;;;;;4.93;77.75;98322.38;5063510;28;20392;-71
2022/02/18 09:21:59;;;;;;;15.80;2.50;;;;;;;5.03;77.84;98330.78;5063489;28;20485;-73
2022/02/18 09:24:25;;;;;;;13.00;3.03;;;;;;;5.28;78.70;98317.41;5063140;28;20434;-71
2022/02/18 09:26:51;;;;;;;16.58;3.33;;;;;;;5.62;77.74;98327.00;5063608;28;20034;-71
2022/02/18 09:29:17;;;;;;;22.67;3.05;;;;;;;5.69;76.98;98333.69;5063432;28;20028;-71
2022/02/18 09:31:42;;;;;;;12.68;3.33;;;;;;;5.74;76.91;98336.19;5063214;28;20086;-71
2022/02/18 09:34:09;;;;;;;22.85;2.72;;;;;;;5.64;76.09;98309.78;5063414;28;20073;-71
2022/02/18 09:36:34;;;;;;;16.63;3.15;;;;;;;5.87;75.87;98305.84;5063174;28;20025;-71
2022/02/18 09:39:00;;;;;;;5.45;1.75;;;;;;;6.03;74.52;98324.38;5062881;28;20048;-70
2022/02/18 09:41:25;;;;;;;22.88;3.42;;;;;;;5.89;73.57;98332.44;5063050;28;20021;-71
2022/02/18 09:43:52;;;;;;;24.60;3.95;;;;;;;5.77;73.56;98315.50;5044998;28;20116;-71
2022/02/18 09:46:21;;;;;;;25.92;3.65;;;;;;;5.70;73.51;98322.50;5062938;28;20033;-70
2022/02/18 09:48:47;;;;;;;27.42;4.85;;;;;;;5.63;74.00;98323.53;5063058;28;20025;-71
2022/02/18 09:51:15;;;;;;;24.15;4.80;;;;;;;5.52;73.55;98323.78;5062868;28;20038;-71
2022/02/18 09:53:41;;;;;;;20.08;4.10;;;;;;;5.48;74.13;98323.88;5062430;28;20035;-71
2022/02/18 09:56:08;;;;;;;23.80;4.22;;;;;;;5.46;74.22;98322.16;5062972;28;20025;-71
2022/02/18 09:58:35;;;;;;;25.77;4.10;;;;;;;5.45;73.59;98319.63;5062645;28;20492;-69
2022/02/18 10:01:00;;;;;;;32.63;3.20;;;;;;;5.39;73.89;98312.91;5062564;28;20032;-69
2022/02/18 10:03:26;;;;;;;18.70;2.83;;;;;;;5.31;73.51;98304.47;5062647;28;20021;-70
2022/02/18 10:05:51;;;;;;;23.05;3.90;;;;;;;5.34;74.06;98312.13;5062835;28;20025;-71
2022/02/18 10:08:19;;;;;;;18.73;4.35;;;;;;;5.32;73.55;98313.88;5062623;28;20358;-70
2022/02/18 10:11:07;;;;;;;22.85;4.35;;;;;;;5.25;72.91;98312.34;5062621;28;20334;-71
2022/02/18 10:13:38;;;;;;;24.30;3.85;;;;;;;5.25;73.82;98302.91;5062340;28;20052;-70
2022/02/18 10:16:05;;;;;;;16.20;2.35;;;;;;;5.23;74.22;98306.34;5062497;28;20029;-70
2022/02/18 10:18:56;;;;;;;21.50;4.05;;;;;;;5.19;73.83;98309.00;5062558;28;20104;-70
2022/02/18 10:21:21;;;;;;;24.98;3.50;;;;;;;5.19;74.77;98303.03;5062368;28;20017;-70
2022/02/18 10:23:47;;;;;;;14.10;3.05;;;;;;;5.19;74.37;98293.56;5062249;28;20013;-70
2022/02/18 10:26:12;;;;;;;18.65;3.20;;;;;;;5.24;74.39;98295.22;5042736;28;20049;-70
2022/02/18 10:28:38;;;;;;;13.40;3.00;;;;;;;5.15;73.79;98291.09;5046712;28;20034;-72
2022/02/18 10:31:06;;;;;;;16.58;3.05;;;;;;;5.20;75.13;98291.84;5046526;28;20395;-71
2022/02/18 10:33:35;;;;;;;29.52;3.38;;;;;;;5.12;74.32;98289.44;5046442;28;20052;-71
2022/02/18 10:36:03;;;;;;;10.40;2.35;;;;;;;5.11;74.12;98295.47;5046663;28;20026;-71
2022/02/18 10:38:32;;;;;;;24.42;4.20;;;;;;;5.16;73.66;98293.63;5046343;28;20120;-71
2022/02/18 10:40:59;;;;;;;20.52;4.20;;;;;;;5.26;74.70;98301.16;5044319;28;20421;-71
2022/02/18 10:43:26;;;;;;;28.58;4.20;;;;;;;5.29;74.25;98293.38;5045350;28;20071;-72
2022/02/18 10:45:59;;;;;;;32.92;4.93;;;;;;;5.27;74.36;98306.25;5045251;28;20052;-71
2022/02/18 10:48:26;;;;;;;26.45;5.38;;;;;;;5.22;74.68;98297.81;5046446;28;20076;-72
2022/02/18 10:51:03;;;;;;;28.05;4.97;;;;;;;5.21;75.78;98278.94;5046415;28;20044;-72
2022/02/18 10:53:35;;;;;;;27.15;5.60;;;;;;;5.11;74.91;98289.47;5045919;28;20048;-71
2022/02/18 10:56:04;;;;;;;27.35;4.28;;;;;;;5.11;76.07;98292.91;5046333;28;20025;-72
2022/02/18 10:58:38;;;;;;;31.30;4.65;;;;;;;5.05;75.13;98280.13;5046269;28;20025;-71
2022/02/18 11:01:17;;;;;;;18.35;3.33;;;;;;;5.10;75.86;98278.31;5046255;28;20045;-74
2022/02/18 11:03:50;;;;;;;16.75;3.17;;;;;;;5.12;75.17;98280.84;5046503;28;20077;-71
2022/02/18 11:06:33;;;;;;;21.65;3.55;;;;;;;5.21;75.89;98283.25;5045874;28;20026;-76
2022/02/18 11:09:11;;;;;;;29.33;5.70;;;;;;;5.30;76.02;98272.75;5045781;28;20032;-76
2022/02/18 11:11:45;;;;;;;27.25;4.15;;;;;;;5.36;76.00;98269.22;5043376;28;20072;-74
2022/02/18 11:14:17;;;;;;;19.85;3.42;;;;;;;5.34;74.75;98258.09;5045828;28;20334;-74
2022/02/18 11:16:46;;;;;;;24.52;4.15;;;;;;;5.28;74.43;98250.50;5045565;28;20445;-75
2022/02/18 11:19:11;;;;;;;19.52;3.78;;;;;;;5.21;74.63;98242.94;5045747;28;20045;-69
2022/02/18 11:21:37;;;;;;;30.35;4.13;;;;;;;5.24;75.52;98234.28;5045424;28;20025;-70
2022/02/18 11:24:05;;;;;;;22.15;4.22;;;;;;;5.37;75.63;98231.47;5045424;28;20033;-72
2022/02/18 11:26:32;;;;;;;29.83;3.55;;;;;;;5.40;75.29;98218.53;5064615;28;20040;-70
2022/02/18 11:28:59;;;;;;;27.15;4.05;;;;;;;5.49;74.84;98207.16;5064639;28;20045;-69
2022/02/18 11:31:47;;;;;;;25.50;4.78;;;;;;;5.56;74.97;98203.56;5064504;28;20045;-70